createdAt,value
2019-05-10T00:01:00.973Z,2.97
2019-05-10T00:03:47.983Z,3.10
2019-05-10T00:06:35.068Z,3.03
2019-05-10T00:09:04.401Z,3.87
2019-05-10T00:12:01.682Z,3.43
2019-05-10T00:14:45.114Z,3.47
2019-05-10T00:17:20.304Z,3.77
2019-05-10T00:19:49.589Z,3.40
2019-05-10T00:22:18.956Z,3.50
2019-05-10T00:25:02.457Z,3.47
2019-05-10T00:27:19.150Z,3.37
2019-05-10T00:29:48.452Z,4.30
2019-05-10T00:32:17.680Z,3.23
2019-05-10T00:34:47.117Z,3.50
2019-05-10T00:37:16.436Z,3.13
2019-05-10T00:39:45.750Z,3.70
2019-05-10T00:42:14.947Z,3.87
2019-05-10T00:44:44.172Z,3.63
2019-05-10T00:47:13.453Z,4.07
2019-05-10T00:49:42.677Z,4.07
2019-05-10T00:52:11.964Z,4.47
2019-05-10T00:54:41.169Z,4.20
2019-05-10T00:57:10.396Z,4.30
2019-05-10T00:59:39.600Z,4.97
2019-05-10T01:02:08.796Z,4.97
2019-05-10T01:04:38.032Z,4.80
2019-05-10T01:07:07.256Z,5.53
2019-05-10T01:09:36.423Z,4.67
2019-05-10T01:12:05.704Z,4.57
2019-05-10T01:14:35.043Z,4.20
2019-05-10T01:17:04.235Z,5.10
2019-05-10T01:19:33.456Z,4.63
2019-05-10T01:22:02.686Z,5.33
2019-05-10T01:24:31.902Z,4.63
2019-05-10T01:27:01.120Z,4.57
2019-05-10T01:29:30.408Z,4.83
2019-05-10T01:31:59.689Z,5.23
2019-05-10T01:34:28.925Z,4.83
2019-05-10T01:36:58.148Z,4.80
2019-05-10T01:39:27.369Z,4.73
2019-05-10T01:41:56.581Z,6.27
2019-05-10T01:44:25.781Z,5.73
2019-05-10T01:46:54.991Z,5.90
2019-05-10T01:49:24.160Z,5.60
2019-05-10T01:51:53.381Z,5.40
2019-05-10T01:54:22.602Z,5.97
2019-05-10T01:56:51.818Z,5.53
2019-05-10T01:59:21.112Z,6.23
2019-05-10T02:01:50.441Z,6.07
2019-05-10T02:04:19.667Z,5.33
2019-05-10T02:06:48.880Z,6.00
2019-05-10T02:09:18.084Z,5.97
2019-05-10T02:11:47.393Z,6.23
2019-05-10T02:14:16.616Z,5.77
2019-05-10T02:16:45.832Z,6.10
2019-05-10T02:19:15.013Z,5.60
2019-05-10T02:21:44.269Z,6.30
2019-05-10T02:24:13.536Z,6.00
2019-05-10T02:26:42.750Z,6.07
2019-05-10T02:29:11.904Z,6.40
2019-05-10T02:31:41.146Z,6.43
2019-05-10T02:34:10.366Z,6.73
2019-05-10T02:36:39.589Z,6.37
2019-05-10T02:39:09.236Z,6.33
2019-05-10T02:41:38.540Z,7.20
2019-05-10T02:44:07.874Z,7.50
2019-05-10T02:46:37.059Z,7.63
2019-05-10T02:49:06.360Z,6.93
2019-05-10T02:51:35.641Z,7.70
2019-05-10T02:54:04.822Z,6.97
2019-05-10T02:56:34.740Z,7.80
2019-05-10T02:59:04.040Z,7.70
2019-05-10T03:01:34.704Z,7.37
2019-05-10T03:04:03.888Z,7.33
2019-05-10T03:06:37.305Z,6.20
2019-05-10T03:09:08.487Z,7.13
2019-05-10T03:11:48.369Z,7.90
2019-05-10T03:14:22.633Z,7.80
2019-05-10T03:16:52.745Z,8.13
2019-05-10T03:19:22.442Z,8.40
2019-05-10T03:22:06.107Z,7.93
2019-05-10T03:24:35.326Z,8.00
2019-05-10T03:27:04.536Z,8.27
2019-05-10T03:29:33.816Z,7.17
2019-05-10T03:32:03.061Z,7.87
2019-05-10T03:34:32.249Z,8.47
2019-05-10T03:37:01.482Z,7.93
2019-05-10T03:39:30.753Z,8.07
2019-05-10T03:42:00.181Z,8.50
2019-05-10T03:44:29.353Z,7.83
2019-05-10T03:46:58.557Z,7.73
2019-05-10T03:49:27.769Z,8.97
2019-05-10T03:51:57.008Z,7.20
2019-05-10T03:54:26.186Z,8.13
2019-05-10T03:57:12.264Z,8.63
2019-05-10T03:59:26.231Z,9.37
2019-05-10T04:01:55.384Z,9.13
2019-05-10T04:04:24.637Z,10.00
2019-05-10T04:06:53.935Z,10.63
2019-05-10T04:09:23.179Z,10.07
2019-05-10T04:11:52.437Z,10.60
2019-05-10T04:14:21.647Z,10.40
2019-05-10T04:16:50.851Z,11.53
2019-05-10T04:19:20.092Z,10.73
2019-05-10T04:21:49.358Z,12.00
2019-05-10T04:24:18.555Z,11.73
2019-05-10T04:26:47.798Z,11.60
2019-05-10T04:29:17.087Z,10.00
2019-05-10T04:31:46.301Z,11.37
2019-05-10T04:34:15.501Z,12.00
2019-05-10T04:36:44.737Z,11.17
2019-05-10T04:39:13.961Z,11.07
2019-05-10T04:41:43.212Z,12.37
2019-05-10T04:44:12.493Z,11.73
2019-05-10T04:46:41.796Z,11.83
2019-05-10T04:49:11.029Z,12.73
2019-05-10T04:51:40.292Z,12.40
2019-05-10T04:54:09.484Z,12.50
2019-05-10T04:56:38.678Z,11.93
2019-05-10T04:59:07.898Z,12.83
2019-05-10T05:01:37.163Z,12.23
2019-05-10T05:04:06.417Z,12.67
2019-05-10T05:06:35.772Z,13.07
2019-05-10T05:09:06.684Z,11.90
2019-05-10T05:11:35.872Z,12.60
2019-05-10T05:14:09.086Z,11.53
2019-05-10T05:16:36.128Z,11.93
2019-05-10T05:19:05.341Z,11.87
2019-05-10T05:21:34.539Z,11.53
2019-05-10T05:24:03.770Z,10.43
2019-05-10T05:26:32.964Z,10.57
2019-05-10T05:29:02.165Z,11.63
2019-05-10T05:31:31.378Z,11.77
2019-05-10T05:34:04.987Z,12.13
2019-05-10T05:36:31.463Z,12.53
2019-05-10T05:39:00.655Z,12.77
2019-05-10T05:41:47.978Z,12.03
2019-05-10T05:44:05.340Z,12.50
2019-05-10T05:46:34.572Z,13.50
2019-05-10T05:49:03.812Z,13.77
2019-05-10T05:51:33.261Z,13.23
2019-05-10T05:54:04.180Z,12.53
2019-05-10T05:56:33.652Z,12.53
2019-05-10T05:59:02.891Z,13.80
2019-05-10T06:01:32.099Z,13.90
2019-05-10T06:04:06.210Z,13.53
2019-05-10T06:06:32.163Z,14.30
2019-05-10T06:09:01.690Z,14.97
2019-05-10T06:11:35.943Z,15.23
2019-05-10T06:14:07.587Z,16.10
2019-05-10T06:16:32.756Z,16.37
2019-05-10T06:19:01.957Z,16.33
2019-05-10T06:21:31.185Z,17.13
2019-05-10T06:24:00.365Z,18.10
2019-05-10T06:26:29.583Z,16.37
2019-05-10T06:29:03.845Z,16.27
2019-05-10T06:31:29.720Z,14.07
2019-05-10T06:33:58.930Z,12.13
2019-05-10T06:36:28.229Z,12.17
2019-05-10T06:38:57.556Z,12.83
2019-05-10T06:41:26.785Z,11.47
2019-05-10T06:43:56.218Z,11.87
2019-05-10T06:46:29.684Z,12.37
2019-05-10T06:48:56.195Z,11.00
2019-05-10T06:51:25.423Z,11.97
2019-05-10T06:53:54.611Z,12.60
2019-05-10T06:56:23.913Z,12.50
2019-05-10T06:58:53.084Z,12.00
2019-05-10T07:01:23.224Z,10.93
2019-05-10T07:03:52.380Z,14.10
2019-05-10T07:06:21.577Z,13.17
2019-05-10T07:08:51.886Z,14.17
2019-05-10T07:11:21.618Z,13.23
2019-05-10T07:13:53.117Z,14.43
2019-05-10T07:16:24.415Z,13.63
2019-05-10T07:18:54.902Z,14.43
2019-05-10T07:21:23.430Z,13.73
2019-05-10T07:23:52.717Z,13.10
2019-05-10T07:26:24.312Z,12.77
2019-05-10T07:28:57.592Z,13.23
2019-05-10T07:31:23.999Z,12.50
2019-05-10T07:33:53.432Z,12.13
2019-05-10T07:36:27.054Z,12.40
2019-05-10T07:38:53.654Z,12.50
2019-05-10T07:41:26.594Z,11.80
2019-05-10T07:43:53.757Z,11.40
2019-05-10T07:46:24.590Z,12.07
2019-05-10T07:48:54.052Z,11.17
2019-05-10T07:51:28.680Z,11.17
2019-05-10T07:53:57.139Z,10.80
2019-05-10T07:56:25.021Z,11.40
2019-05-10T07:58:54.232Z,8.60
2019-05-10T08:01:32.193Z,8.73
2019-05-10T08:03:54.300Z,7.80
2019-05-10T08:06:23.524Z,9.10
2019-05-10T08:08:55.402Z,9.77
2019-05-10T08:11:23.626Z,10.37
2019-05-10T08:13:57.797Z,8.23
2019-05-10T08:16:23.717Z,8.30
2019-05-10T08:18:55.684Z,8.70
2019-05-10T08:21:26.326Z,9.03
2019-05-10T08:23:58.977Z,8.27
2019-05-10T08:26:25.526Z,7.20
2019-05-10T08:28:54.741Z,7.17
2019-05-10T08:31:26.236Z,7.53
2019-05-10T08:33:58.886Z,7.30
2019-05-10T08:36:25.751Z,7.20
2019-05-10T08:39:05.095Z,6.60
2019-05-10T08:41:25.834Z,7.13
2019-05-10T08:43:55.021Z,6.83
2019-05-10T08:46:28.601Z,7.00
2019-05-10T08:48:55.216Z,7.27
2019-05-10T08:51:24.412Z,7.57
2019-05-10T08:53:58.142Z,7.60
2019-05-10T08:56:24.480Z,7.93
2019-05-10T08:58:53.914Z,7.47
2019-05-10T09:01:29.568Z,7.00
2019-05-10T09:03:59.372Z,5.50
2019-05-10T09:06:24.889Z,5.57
2019-05-10T09:09:01.618Z,5.30
2019-05-10T09:11:25.441Z,5.27
2019-05-10T09:13:57.502Z,5.47
2019-05-10T09:16:28.984Z,4.97
2019-05-10T09:18:56.565Z,5.53
2019-05-10T09:21:25.789Z,5.17
2019-05-10T09:24:01.590Z,5.07
2019-05-10T09:26:25.848Z,4.87
2019-05-10T09:28:57.529Z,4.57
2019-05-10T09:31:26.002Z,5.13
2019-05-10T09:33:55.232Z,4.57
2019-05-10T09:36:31.171Z,4.87
2019-05-10T09:38:55.489Z,4.23
2019-05-10T09:41:27.605Z,3.10
2019-05-10T09:43:55.466Z,3.20
2019-05-10T09:46:24.658Z,2.00
2019-05-10T09:49:04.522Z,1.57
2019-05-10T09:51:30.172Z,1.90
2019-05-10T09:53:57.664Z,1.70
2019-05-10T09:56:27.588Z,1.83
2019-05-10T09:58:58.249Z,1.90
2019-05-10T10:01:28.777Z,1.80
2019-05-10T10:04:00.083Z,1.90
2019-05-10T10:06:29.774Z,2.00
2019-05-10T10:09:00.902Z,1.70
2019-05-10T10:11:30.304Z,2.20
2019-05-10T10:14:02.040Z,1.87
2019-05-10T10:16:30.369Z,1.60
2019-05-10T10:18:59.556Z,1.57
2019-05-10T10:21:34.813Z,1.87
2019-05-10T10:24:00.461Z,2.30
2019-05-10T10:26:29.853Z,1.63
2019-05-10T10:29:00.138Z,1.73
2019-05-10T10:31:33.392Z,1.57
2019-05-10T10:34:03.097Z,1.70
2019-05-10T10:36:31.369Z,1.50
2019-05-10T10:39:00.565Z,1.10
2019-05-10T10:41:31.872Z,1.30
2019-05-10T10:44:00.634Z,1.77
2019-05-10T10:46:29.882Z,1.70
2019-05-10T10:48:59.073Z,1.40
2019-05-10T10:51:32.416Z,1.40
2019-05-10T10:53:59.188Z,1.10
2019-05-10T10:56:28.405Z,1.20
2019-05-10T10:58:58.029Z,1.37
2019-05-10T11:01:33.230Z,1.43
2019-05-10T11:04:03.451Z,1.70
2019-05-10T11:06:29.250Z,1.50
2019-05-10T11:08:58.436Z,1.50
2019-05-10T11:11:32.498Z,1.70
2019-05-10T11:14:06.904Z,1.90
2019-05-10T11:16:29.504Z,2.17
2019-05-10T11:19:03.684Z,1.67
2019-05-10T11:21:31.252Z,2.10
2019-05-10T11:24:01.439Z,2.07
2019-05-10T11:26:32.827Z,1.80
2019-05-10T11:29:01.692Z,2.10
2019-05-10T11:31:31.276Z,1.60
2019-05-10T11:34:01.554Z,1.30
2019-05-10T11:36:31.329Z,1.27
2019-05-10T11:39:01.647Z,1.50
2019-05-10T11:41:31.540Z,1.40
2019-05-10T11:44:05.269Z,1.13
2019-05-10T11:46:31.789Z,1.80
2019-05-10T11:49:01.755Z,1.33
2019-05-10T11:51:31.768Z,1.30
2019-05-10T11:54:00.993Z,1.30
2019-05-10T11:56:32.331Z,1.10
2019-05-10T11:59:02.466Z,1.20
2019-05-10T12:01:32.032Z,1.20
2019-05-10T12:06:32.179Z,1.67
2019-05-10T12:09:04.507Z,1.80
2019-05-10T12:11:33.739Z,1.70
2019-05-10T12:14:03.864Z,1.50
2019-05-10T12:16:33.771Z,1.57
2019-05-10T12:19:15.671Z,1.80
2019-05-10T12:21:34.575Z,1.63
2019-05-10T12:24:26.356Z,1.50
2019-05-10T12:26:06.158Z,1.50
2019-05-10T12:29:12.449Z,1.10
2019-05-10T12:31:37.735Z,1.23
2019-05-10T12:34:13.216Z,1.20
2019-05-10T12:36:38.464Z,1.40
2019-05-10T12:39:08.543Z,1.20
2019-05-10T12:41:39.630Z,1.43
2019-05-10T12:44:11.217Z,1.53
2019-05-10T12:46:42.153Z,1.27
2019-05-10T12:49:11.931Z,1.20
2019-05-10T12:51:43.217Z,1.40
2019-05-10T12:54:13.094Z,1.50
2019-05-10T12:56:45.948Z,1.13
2019-05-10T12:59:14.468Z,1.07
2019-05-10T13:01:43.837Z,1.00
2019-05-10T13:04:14.873Z,1.40
2019-05-10T13:06:44.100Z,1.17
2019-05-10T13:09:13.361Z,1.23
2019-05-10T13:11:42.878Z,1.23
2019-05-10T13:14:12.373Z,1.30
2019-05-10T13:16:41.624Z,1.70
2019-05-10T13:19:14.228Z,1.07
2019-05-10T13:21:41.685Z,1.00
2019-05-10T13:24:10.850Z,1.03
2019-05-10T13:26:40.036Z,1.43
2019-05-10T13:29:10.523Z,1.30
2019-05-10T13:31:42.699Z,1.10
2019-05-10T13:34:11.132Z,1.17
2019-05-10T13:36:40.484Z,1.37
2019-05-10T13:39:09.786Z,1.40
2019-05-10T13:41:38.910Z,1.30
2019-05-10T13:44:08.090Z,1.43
2019-05-10T13:46:37.282Z,1.33
2019-05-10T13:49:06.520Z,1.40
2019-05-10T13:51:35.731Z,1.43
2019-05-10T13:54:05.393Z,1.40
2019-05-10T13:56:34.904Z,1.43
2019-05-10T13:59:15.751Z,1.37
2019-05-10T14:01:34.939Z,1.20
2019-05-10T14:04:04.163Z,1.10
2019-05-10T14:06:33.372Z,1.20
2019-05-10T14:09:02.586Z,1.20
2019-05-10T14:11:33.905Z,1.40
2019-05-10T14:14:02.676Z,1.30
2019-05-10T14:16:31.885Z,1.37
2019-05-10T14:19:01.118Z,1.70
2019-05-10T14:21:30.291Z,1.43
2019-05-10T14:23:59.488Z,1.83
2019-05-10T14:26:28.711Z,1.57
2019-05-10T14:28:57.914Z,1.70
2019-05-10T14:31:27.092Z,1.63
2019-05-10T14:36:27.156Z,1.43
2019-05-10T14:38:56.526Z,1.33
2019-05-10T14:41:25.781Z,1.23
2019-05-10T14:43:55.004Z,1.50
2019-05-10T14:46:24.192Z,1.30
2019-05-10T14:48:53.393Z,1.33
2019-05-10T14:51:22.562Z,1.00
2019-05-10T14:53:52.381Z,1.20
2019-05-10T14:56:21.569Z,1.27
2019-05-10T14:58:50.768Z,1.40
2019-05-10T15:01:20.005Z,1.23
2019-05-10T15:03:49.218Z,1.40
2019-05-10T15:06:18.456Z,1.43
2019-05-10T15:08:47.627Z,1.70
2019-05-10T15:11:18.050Z,1.53
2019-05-10T15:13:47.591Z,1.80
2019-05-10T15:16:26.190Z,1.30
2019-05-10T15:18:48.913Z,1.50
2019-05-10T15:21:18.758Z,1.70
2019-05-10T15:23:48.264Z,1.60
2019-05-10T15:26:17.892Z,1.90
2019-05-10T15:28:47.844Z,1.67
2019-05-10T15:31:17.575Z,1.70
2019-05-10T15:33:47.255Z,1.67
2019-05-10T15:36:16.677Z,1.70
2019-05-10T15:38:51.707Z,1.40
2019-05-10T15:41:22.260Z,1.40
2019-05-10T15:43:53.320Z,1.50
2019-05-10T15:46:23.205Z,1.80
2019-05-10T15:48:51.427Z,1.30
2019-05-10T15:51:35.272Z,1.47
2019-05-10T15:54:04.226Z,2.17
2019-05-10T15:56:24.529Z,1.73
2019-05-10T15:58:54.088Z,1.77
2019-05-10T16:01:26.888Z,1.60
2019-05-10T16:03:54.895Z,1.73
2019-05-10T16:06:24.114Z,1.47
2019-05-10T16:08:53.297Z,1.40
2019-05-10T16:11:22.508Z,2.00
2019-05-10T16:13:54.859Z,1.93
2019-05-10T16:16:22.562Z,1.77
2019-05-10T16:18:51.790Z,1.87
2019-05-10T16:21:21.018Z,1.70
2019-05-10T16:23:50.299Z,2.27
2019-05-10T16:26:23.022Z,1.60
2019-05-10T16:28:52.595Z,1.70
2019-05-10T16:31:21.223Z,1.57
2019-05-10T16:33:53.579Z,2.07
2019-05-10T16:36:23.128Z,1.60
2019-05-10T16:38:52.264Z,2.00
2019-05-10T16:41:21.450Z,2.13
2019-05-10T16:43:57.140Z,1.50
2019-05-10T16:46:21.517Z,1.67
2019-05-10T16:48:50.735Z,1.97
2019-05-10T16:51:19.936Z,1.83
2019-05-10T16:53:49.295Z,1.97
2019-05-10T16:56:19.268Z,2.37
2019-05-10T16:58:53.110Z,1.47
2019-05-10T17:01:25.398Z,2.47
2019-05-10T17:03:59.190Z,1.80
2019-05-10T17:06:21.895Z,1.67
2019-05-10T17:08:51.083Z,1.80
2019-05-10T17:11:20.303Z,1.80
2019-05-10T17:13:49.510Z,2.00
2019-05-10T17:16:19.004Z,1.90
2019-05-10T17:18:49.964Z,1.80
2019-05-10T17:21:19.202Z,1.70
2019-05-10T17:23:48.629Z,1.40
2019-05-10T17:26:18.065Z,1.60
2019-05-10T17:28:47.237Z,1.90
2019-05-10T17:31:16.445Z,1.97
2019-05-10T17:33:45.633Z,1.97
2019-05-10T17:36:19.931Z,2.40
2019-05-10T17:38:47.506Z,1.87
2019-05-10T17:41:19.537Z,1.77
2019-05-10T17:43:47.823Z,1.77
2019-05-10T17:46:18.755Z,1.70
2019-05-10T17:48:49.534Z,1.83
2019-05-10T17:51:20.146Z,1.77
2019-05-10T17:53:54.962Z,2.10
2019-05-10T17:56:20.975Z,1.80
2019-05-10T17:58:50.153Z,2.10
2019-05-10T18:01:19.395Z,2.30
2019-05-10T18:03:48.574Z,2.10
2019-05-10T18:06:24.126Z,2.00
2019-05-10T18:08:49.485Z,2.27
2019-05-10T18:11:18.669Z,2.17
2019-05-10T18:13:48.004Z,2.17
2019-05-10T18:16:17.206Z,2.10
2019-05-10T18:18:48.318Z,2.30
2019-05-10T18:21:22.101Z,1.63
2019-05-10T18:23:52.724Z,2.00
2019-05-10T18:26:19.067Z,2.20
2019-05-10T18:28:48.385Z,2.10
2019-05-10T18:31:17.592Z,1.93
2019-05-10T18:33:54.229Z,1.77
2019-05-10T18:36:17.828Z,2.57
2019-05-10T18:38:47.033Z,2.47
2019-05-10T18:41:16.297Z,2.00
2019-05-10T18:43:45.491Z,2.00
2019-05-10T18:46:14.775Z,2.00
2019-05-10T18:48:43.961Z,2.00
2019-05-10T18:51:18.085Z,1.70
2019-05-10T18:53:44.074Z,2.03
2019-05-10T18:56:13.364Z,1.83
2019-05-10T18:58:42.568Z,1.70
2019-05-10T19:01:11.831Z,1.83
2019-05-10T19:03:41.052Z,1.90
2019-05-10T19:06:11.327Z,2.13
2019-05-10T19:08:44.067Z,2.27
2019-05-10T19:11:12.634Z,2.20
2019-05-10T19:13:47.855Z,2.37
2019-05-10T19:16:13.021Z,2.27
2019-05-10T19:18:42.317Z,1.93
2019-05-10T19:21:11.519Z,2.00
2019-05-10T19:23:40.904Z,2.53
2019-05-10T19:26:10.111Z,2.27
2019-05-10T19:28:39.395Z,1.90
2019-05-10T19:31:08.761Z,1.67
2019-05-10T19:33:38.199Z,2.10
2019-05-10T19:36:12.192Z,2.00
2019-05-10T19:38:38.463Z,2.30
2019-05-10T19:41:07.672Z,2.50
2019-05-10T19:43:36.872Z,2.13
2019-05-10T19:46:06.077Z,1.80
2019-05-10T19:48:36.896Z,3.37
2019-05-10T19:51:09.678Z,2.43
2019-05-10T19:53:42.432Z,2.70
2019-05-10T19:56:08.067Z,4.43
2019-05-10T19:58:37.323Z,6.60
2019-05-10T20:01:06.550Z,6.30
2019-05-10T20:03:35.853Z,5.60
2019-05-10T20:06:05.176Z,4.57
2019-05-10T20:08:34.412Z,2.90
2019-05-10T20:11:03.692Z,3.13
2019-05-10T20:13:32.884Z,2.77
2019-05-10T20:16:02.157Z,2.70
2019-05-10T20:18:31.475Z,2.67
2019-05-10T20:21:00.778Z,2.90
2019-05-10T20:23:30.001Z,2.70
2019-05-10T20:26:00.134Z,3.27
2019-05-10T20:28:29.354Z,3.30
2019-05-10T20:30:58.546Z,2.93
2019-05-10T20:33:27.848Z,3.10
2019-05-10T20:35:57.036Z,3.00
2019-05-10T20:38:26.379Z,3.10
2019-05-10T20:40:55.607Z,3.07
2019-05-10T20:43:24.911Z,2.97
2019-05-10T20:45:54.127Z,3.60
2019-05-10T20:48:24.184Z,3.23
2019-05-10T20:50:53.492Z,3.57
2019-05-10T20:53:22.712Z,2.90
2019-05-10T20:55:51.933Z,2.37
2019-05-10T20:58:21.149Z,2.60
2019-05-10T21:00:50.373Z,2.60
2019-05-10T21:03:19.547Z,2.63
2019-05-10T21:05:48.756Z,2.93
2019-05-10T21:08:17.952Z,3.40
2019-05-10T21:10:47.233Z,2.93
2019-05-10T21:13:16.358Z,2.93
2019-05-10T21:15:45.576Z,2.90
2019-05-10T21:18:14.744Z,3.57
2019-05-10T21:20:43.974Z,3.60
2019-05-10T21:23:13.767Z,2.70
2019-05-10T21:25:42.932Z,3.47
2019-05-10T21:28:12.112Z,3.13
2019-05-10T21:30:41.301Z,3.27
2019-05-10T21:33:10.499Z,3.77
2019-05-10T21:35:39.734Z,3.00
2019-05-10T21:38:08.938Z,3.10
2019-05-10T21:40:38.188Z,4.07
2019-05-10T21:43:07.468Z,3.43
2019-05-10T21:45:36.680Z,3.57
2019-05-10T21:48:06.030Z,4.20
2019-05-10T21:50:35.249Z,3.93
2019-05-10T21:53:04.455Z,4.17
2019-05-10T21:55:33.653Z,3.77
2019-05-10T21:58:02.852Z,3.83
2019-05-10T22:00:36.280Z,3.47
2019-05-10T22:03:05.639Z,3.80
2019-05-10T22:05:34.890Z,3.13
2019-05-10T22:08:04.128Z,3.47
2019-05-10T22:10:33.364Z,3.70
2019-05-10T22:13:02.591Z,3.00
2019-05-10T22:15:31.771Z,3.23
2019-05-10T22:18:01.126Z,2.93
2019-05-10T22:20:30.306Z,3.30
2019-05-10T22:22:59.505Z,3.27
2019-05-10T22:25:28.708Z,3.33
2019-05-10T22:27:57.959Z,3.10
2019-05-10T22:30:27.128Z,3.17
2019-05-10T22:32:56.224Z,3.40
2019-05-10T22:35:25.428Z,3.10
2019-05-10T22:37:54.601Z,2.70
2019-05-10T22:40:23.832Z,3.07
2019-05-10T22:42:53.032Z,3.30
2019-05-10T22:45:22.288Z,2.87
2019-05-10T22:47:51.518Z,3.53
2019-05-10T22:50:20.717Z,3.20
2019-05-10T22:52:49.918Z,3.00
2019-05-10T22:55:19.192Z,2.80
2019-05-10T22:57:48.393Z,3.43
2019-05-10T23:00:17.793Z,3.40
2019-05-10T23:02:47.048Z,3.37
2019-05-10T23:05:16.223Z,3.40
2019-05-10T23:07:45.439Z,3.27
2019-05-10T23:10:14.796Z,3.03
2019-05-10T23:12:44.023Z,3.20
2019-05-10T23:15:13.274Z,3.53
2019-05-10T23:17:42.548Z,3.27
2019-05-10T23:20:12.468Z,3.77
2019-05-10T23:22:41.753Z,3.83
2019-05-10T23:25:11.056Z,3.77
2019-05-10T23:27:40.217Z,3.90
2019-05-10T23:30:09.795Z,4.07
2019-05-10T23:32:38.993Z,3.40
2019-05-10T23:35:08.397Z,3.63
2019-05-10T23:37:37.716Z,3.50
2019-05-10T23:40:07.260Z,3.97
2019-05-10T23:42:36.480Z,3.30
2019-05-10T23:45:06.139Z,3.90
2019-05-10T23:47:35.361Z,3.57
2019-05-10T23:50:05.464Z,3.23
2019-05-10T23:52:34.812Z,4.00
2019-05-10T23:55:04.062Z,3.30
2019-05-10T23:57:33.253Z,3.70
